sensor_id;sensor_type;location;lat;lon;timestamp;pressure;altitude;pressure_sealevel;temperature;humidity
73981;BME280;62348;51.412;5.436;2022-08-20T00:00:22;101425.63;;;19.49;83.42
73981;BME280;62348;51.412;5.436;2022-08-20T00:02:53;101416.59;;;19.48;83.68
73981;BME280;62348;51.412;5.436;2022-08-20T00:05:31;101413.03;;;19.48;83.37
73981;BME280;62348;51.412;5.436;2022-08-20T00:08:05;101403.78;;;19.44;83.84
73981;BME280;62348;51.412;5.436;2022-08-20T00:10:33;101403.19;;;19.47;83.72
73981;BME280;62348;51.412;5.436;2022-08-20T00:12:59;101390.59;;;19.46;83.41
73981;BME280;62348;51.412;5.436;2022-08-20T00:15:28;101395.25;;;19.45;83.64
73981;BME280;62348;51.412;5.436;2022-08-20T00:17:54;101400.03;;;19.40;84.20
73981;BME280;62348;51.412;5.436;2022-08-20T00:20:22;101398.94;;;19.41;83.96
73981;BME280;62348;51.412;5.436;2022-08-20T00:22:49;101398.25;;;19.35;84.36
73981;BME280;62348;51.412;5.436;2022-08-20T00:25:15;101397.59;;;19.38;84.09
73981;BME280;62348;51.412;5.436;2022-08-20T00:27:41;101400.03;;;19.40;84.08
73981;BME280;62348;51.412;5.436;2022-08-20T00:30:09;101398.75;;;19.37;84.03
73981;BME280;62348;51.412;5.436;2022-08-20T00:32:54;101405.31;;;19.36;83.92
73981;BME280;62348;51.412;5.436;2022-08-20T00:35:22;101399.94;;;19.31;84.11
73981;BME280;62348;51.412;5.436;2022-08-20T00:37:48;101406.63;;;19.39;83.78
73981;BME280;62348;51.412;5.436;2022-08-20T00:40:16;101396.50;;;19.39;84.09
73981;BME280;62348;51.412;5.436;2022-08-20T00:42:47;101402.78;;;19.40;83.83
73981;BME280;62348;51.412;5.436;2022-08-20T00:45:14;101404.22;;;19.37;84.18
73981;BME280;62348;51.412;5.436;2022-08-20T00:47:40;101395.50;;;19.35;84.18
73981;BME280;62348;51.412;5.436;2022-08-20T00:50:14;101400.78;;;19.31;84.22
73981;BME280;62348;51.412;5.436;2022-08-20T00:52:41;101400.78;;;19.31;84.35
73981;BME280;62348;51.412;5.436;2022-08-20T00:55:09;101404.72;;;19.25;84.63
73981;BME280;62348;51.412;5.436;2022-08-20T00:57:40;101407.06;;;19.32;84.12
73981;BME280;62348;51.412;5.436;2022-08-20T01:00:11;101402.69;;;19.31;84.34
73981;BME280;62348;51.412;5.436;2022-08-20T01:02:37;101406.34;;;19.26;84.69
73981;BME280;62348;51.412;5.436;2022-08-20T01:05:03;101405.56;;;19.26;84.97
73981;BME280;62348;51.412;5.436;2022-08-20T01:07:29;101400.28;;;19.29;84.37
73981;BME280;62348;51.412;5.436;2022-08-20T01:10:21;101401.28;;;19.34;83.91
73981;BME280;62348;51.412;5.436;2022-08-20T01:12:48;101403.31;;;19.28;84.93
73981;BME280;62348;51.412;5.436;2022-08-20T01:15:16;101392.66;;;19.26;84.50
73981;BME280;62348;51.412;5.436;2022-08-20T01:17:45;101395.41;;;19.26;84.70
73981;BME280;62348;51.412;5.436;2022-08-20T01:20:41;101393.06;;;19.34;83.96
73981;BME280;62348;51.412;5.436;2022-08-20T01:28:34;101404.91;;;19.29;84.24
73981;BME280;62348;51.412;5.436;2022-08-20T01:31:01;101402.59;;;19.22;84.56
73981;BME280;62348;51.412;5.436;2022-08-20T01:33:27;101401.19;;;19.25;84.51
73981;BME280;62348;51.412;5.436;2022-08-20T01:35:53;101397.34;;;19.26;84.37
73981;BME280;62348;51.412;5.436;2022-08-20T01:38:19;101395.19;;;19.23;84.27
73981;BME280;62348;51.412;5.436;2022-08-20T01:43:49;101390.31;;;19.20;84.14
73981;BME280;62348;51.412;5.436;2022-08-20T01:46:16;101399.66;;;19.19;84.33
73981;BME280;62348;51.412;5.436;2022-08-20T01:48:43;101392.03;;;19.16;84.28
73981;BME280;62348;51.412;5.436;2022-08-20T01:51:17;101399.75;;;19.14;84.11
73981;BME280;62348;51.412;5.436;2022-08-20T01:53:49;101393.78;;;19.11;84.14
73981;BME280;62348;51.412;5.436;2022-08-20T01:56:19;101404.84;;;19.06;84.14
73981;BME280;62348;51.412;5.436;2022-08-20T01:58:49;101395.00;;;19.05;83.79
73981;BME280;62348;51.412;5.436;2022-08-20T02:01:35;101400.97;;;19.07;83.81
73981;BME280;62348;51.412;5.436;2022-08-20T02:04:04;101398.63;;;19.01;84.26
73981;BME280;62348;51.412;5.436;2022-08-20T02:06:33;101399.34;;;18.92;84.44
73981;BME280;62348;51.412;5.436;2022-08-20T02:09:00;101402.00;;;18.98;84.41
73981;BME280;62348;51.412;5.436;2022-08-20T02:11:27;101401.50;;;18.96;84.34
73981;BME280;62348;51.412;5.436;2022-08-20T02:13:53;101400.16;;;18.93;84.36
73981;BME280;62348;51.412;5.436;2022-08-20T02:16:27;101401.59;;;18.90;84.03
73981;BME280;62348;51.412;5.436;2022-08-20T02:19:09;101401.09;;;18.88;84.05
73981;BME280;62348;51.412;5.436;2022-08-20T02:21:39;101404.13;;;18.87;84.36
73981;BME280;62348;51.412;5.436;2022-08-20T02:24:05;101408.50;;;18.88;84.45
73981;BME280;62348;51.412;5.436;2022-08-20T02:26:31;101409.38;;;18.83;84.45
73981;BME280;62348;51.412;5.436;2022-08-20T02:28:57;101399.31;;;18.79;84.37
73981;BME280;62348;51.412;5.436;2022-08-20T02:31:24;101401.78;;;18.80;84.36
73981;BME280;62348;51.412;5.436;2022-08-20T02:33:49;101395.25;;;18.76;84.38
73981;BME280;62348;51.412;5.436;2022-08-20T02:36:17;101402.34;;;18.77;84.49
73981;BME280;62348;51.412;5.436;2022-08-20T02:38:44;101401.34;;;18.73;84.55
73981;BME280;62348;51.412;5.436;2022-08-20T02:41:11;101404.59;;;18.75;84.60
73981;BME280;62348;51.412;5.436;2022-08-20T02:43:37;101416.66;;;18.74;84.73
73981;BME280;62348;51.412;5.436;2022-08-20T02:46:05;101414.22;;;18.72;84.54
73981;BME280;62348;51.412;5.436;2022-08-20T02:48:32;101416.97;;;18.72;84.39
73981;BME280;62348;51.412;5.436;2022-08-20T02:51:00;101412.00;;;18.75;84.43
73981;BME280;62348;51.412;5.436;2022-08-20T02:53:28;101419.38;;;18.74;84.40
73981;BME280;62348;51.412;5.436;2022-08-20T02:55:55;101410.38;;;18.73;84.50
73981;BME280;62348;51.412;5.436;2022-08-20T02:58:21;101408.25;;;18.70;84.35
73981;BME280;62348;51.412;5.436;2022-08-20T03:00:47;101418.59;;;18.73;84.83
73981;BME280;62348;51.412;5.436;2022-08-20T03:03:14;101408.75;;;18.72;85.11
73981;BME280;62348;51.412;5.436;2022-08-20T03:05:44;101413.91;;;18.74;84.59
73981;BME280;62348;51.412;5.436;2022-08-20T03:08:12;101411.50;;;18.72;84.57
73981;BME280;62348;51.412;5.436;2022-08-20T03:10:40;101426.28;;;18.71;84.74
73981;BME280;62348;51.412;5.436;2022-08-20T03:13:06;101417.06;;;18.67;84.34
73981;BME280;62348;51.412;5.436;2022-08-20T03:15:35;101424.47;;;18.67;84.88
73981;BME280;62348;51.412;5.436;2022-08-20T03:18:00;101430.16;;;18.70;84.78
73981;BME280;62348;51.412;5.436;2022-08-20T03:20:26;101428.00;;;18.67;84.28
73981;BME280;62348;51.412;5.436;2022-08-20T03:22:52;101423.63;;;18.66;84.30
73981;BME280;62348;51.412;5.436;2022-08-20T03:25:17;101415.94;;;18.68;84.09
73981;BME280;62348;51.412;5.436;2022-08-20T03:27:43;101424.75;;;18.65;83.20
73981;BME280;62348;51.412;5.436;2022-08-20T03:30:11;101420.78;;;18.58;82.54
73981;BME280;62348;51.412;5.436;2022-08-20T03:32:37;101428.78;;;18.54;82.75
73981;BME280;62348;51.412;5.436;2022-08-20T03:35:05;101432.94;;;18.51;82.51
73981;BME280;62348;51.412;5.436;2022-08-20T03:37:34;101430.81;;;18.48;82.57
73981;BME280;62348;51.412;5.436;2022-08-20T03:40:00;101431.41;;;18.45;82.52
73981;BME280;62348;51.412;5.436;2022-08-20T03:42:27;101434.44;;;18.44;82.47
73981;BME280;62348;51.412;5.436;2022-08-20T03:44:53;101437.50;;;18.42;82.51
73981;BME280;62348;51.412;5.436;2022-08-20T03:47:19;101436.56;;;18.47;82.67
73981;BME280;62348;51.412;5.436;2022-08-20T03:49:44;101439.41;;;18.42;83.08
73981;BME280;62348;51.412;5.436;2022-08-20T03:52:10;101436.56;;;18.47;82.87
73981;BME280;62348;51.412;5.436;2022-08-20T03:54:36;101442.06;;;18.47;83.14
73981;BME280;62348;51.412;5.436;2022-08-20T03:57:02;101439.09;;;18.43;83.03
73981;BME280;62348;51.412;5.436;2022-08-20T03:59:29;101438.00;;;18.44;83.26
73981;BME280;62348;51.412;5.436;2022-08-20T04:01:58;101440.22;;;18.42;82.88
73981;BME280;62348;51.412;5.436;2022-08-20T04:04:24;101446.81;;;18.41;83.04
73981;BME280;62348;51.412;5.436;2022-08-20T04:06:49;101440.22;;;18.42;83.02
73981;BME280;62348;51.412;5.436;2022-08-20T04:09:15;101443.84;;;18.38;82.95
73981;BME280;62348;51.412;5.436;2022-08-20T04:11:41;101452.06;;;18.38;82.68
73981;BME280;62348;51.412;5.436;2022-08-20T04:14:07;101448.06;;;18.30;82.92
73981;BME280;62348;51.412;5.436;2022-08-20T04:16:32;101441.28;;;18.27;82.90
73981;BME280;62348;51.412;5.436;2022-08-20T04:18:58;101446.47;;;18.29;82.71
73981;BME280;62348;51.412;5.436;2022-08-20T04:21:23;101451.44;;;18.27;82.78
73981;BME280;62348;51.412;5.436;2022-08-20T04:23:49;101444.31;;;18.26;82.77
73981;BME280;62348;51.412;5.436;2022-08-20T04:26:14;101450.38;;;18.23;82.99
73981;BME280;62348;51.412;5.436;2022-08-20T04:28:40;101457.47;;;18.24;82.74
73981;BME280;62348;51.412;5.436;2022-08-20T04:31:06;101451.72;;;18.25;82.52
73981;BME280;62348;51.412;5.436;2022-08-20T04:33:31;101451.00;;;18.20;82.47
73981;BME280;62348;51.412;5.436;2022-08-20T04:35:58;101457.34;;;18.15;82.59
73981;BME280;62348;51.412;5.436;2022-08-20T04:38:28;101459.84;;;18.11;82.86
73981;BME280;62348;51.412;5.436;2022-08-20T04:40:54;101458.69;;;18.18;82.68
73981;BME280;62348;51.412;5.436;2022-08-20T04:45:52;101471.41;;;18.08;82.77
73981;BME280;62348;51.412;5.436;2022-08-20T04:48:19;101474.44;;;18.07;82.44
73981;BME280;62348;51.412;5.436;2022-08-20T04:50:47;101476.03;;;18.08;82.57
73981;BME280;62348;51.412;5.436;2022-08-20T04:53:15;101482.06;;;18.10;82.71
73981;BME280;62348;51.412;5.436;2022-08-20T04:55:44;101478.78;;;18.08;83.01
73981;BME280;62348;51.412;5.436;2022-08-20T04:58:22;101482.88;;;18.10;82.68
73981;BME280;62348;51.412;5.436;2022-08-20T05:00:54;101495.00;;;18.04;83.01
73981;BME280;62348;51.412;5.436;2022-08-20T05:03:21;101496.31;;;18.07;82.84
73981;BME280;62348;51.412;5.436;2022-08-20T05:05:47;101494.31;;;17.93;82.88
73981;BME280;62348;51.412;5.436;2022-08-20T05:08:14;101490.91;;;18.02;82.66
73981;BME280;62348;51.412;5.436;2022-08-20T05:10:40;101496.38;;;18.02;82.35
73981;BME280;62348;51.412;5.436;2022-08-20T05:13:07;101498.66;;;17.94;82.36
73981;BME280;62348;51.412;5.436;2022-08-20T05:15:33;101501.63;;;17.98;82.66
73981;BME280;62348;51.412;5.436;2022-08-20T05:17:59;101508.81;;;17.94;82.37
73981;BME280;62348;51.412;5.436;2022-08-20T05:20:26;101510.44;;;17.95;82.22
73981;BME280;62348;51.412;5.436;2022-08-20T05:22:56;101513.19;;;17.95;82.29
73981;BME280;62348;51.412;5.436;2022-08-20T05:25:22;101504.75;;;17.91;82.37
73981;BME280;62348;51.412;5.436;2022-08-20T05:27:47;101501.13;;;17.96;82.43
73981;BME280;62348;51.412;5.436;2022-08-20T05:30:13;101502.16;;;18.00;82.19
73981;BME280;62348;51.412;5.436;2022-08-20T05:32:39;101497.28;;;17.97;82.37
73981;BME280;62348;51.412;5.436;2022-08-20T05:35:07;101506.59;;;17.96;82.23
73981;BME280;62348;51.412;5.436;2022-08-20T05:37:38;101510.44;;;17.95;82.08
73981;BME280;62348;51.412;5.436;2022-08-20T05:40:10;101508.81;;;17.94;82.15
73981;BME280;62348;51.412;5.436;2022-08-20T05:42:37;101510.16;;;17.97;82.06
73981;BME280;62348;51.412;5.436;2022-08-20T05:45:04;101515.63;;;17.97;82.67
73981;BME280;62348;51.412;5.436;2022-08-20T05:47:30;101512.72;;;17.88;82.97
73981;BME280;62348;51.412;5.436;2022-08-20T05:49:55;101511.31;;;17.90;83.22
73981;BME280;62348;51.412;5.436;2022-08-20T05:52:21;101513.19;;;17.95;82.99
73981;BME280;62348;51.412;5.436;2022-08-20T05:54:46;101515.41;;;17.93;82.53
73981;BME280;62348;51.412;5.436;2022-08-20T05:57:11;101518.66;;;17.95;82.55
73981;BME280;62348;51.412;5.436;2022-08-20T05:59:40;101521.69;;;17.93;82.58
73981;BME280;62348;51.412;5.436;2022-08-20T06:02:06;101524.41;;;17.93;82.66
73981;BME280;62348;51.412;5.436;2022-08-20T06:04:51;101522.47;;;17.94;82.46
73981;BME280;62348;51.412;5.436;2022-08-20T06:07:16;101533.94;;;17.96;82.65
73981;BME280;62348;51.412;5.436;2022-08-20T06:09:42;101524.66;;;17.97;82.54
73981;BME280;62348;51.412;5.436;2022-08-20T06:12:07;101527.09;;;17.99;82.66
73981;BME280;62348;51.412;5.436;2022-08-20T06:14:34;101525.44;;;17.98;82.92
73981;BME280;62348;51.412;5.436;2022-08-20T06:17:12;101531.94;;;18.02;82.63
73981;BME280;62348;51.412;5.436;2022-08-20T06:19:38;101533.06;;;18.01;82.77
73981;BME280;62348;51.412;5.436;2022-08-20T06:22:05;101530.13;;;17.97;82.84
73981;BME280;62348;51.412;5.436;2022-08-20T06:24:30;101530.91;;;17.98;82.88
73981;BME280;62348;51.412;5.436;2022-08-20T06:26:59;101529.31;;;17.97;82.82
73981;BME280;62348;51.412;5.436;2022-08-20T06:29:26;101531.81;;;17.93;82.78
73981;BME280;62348;51.412;5.436;2022-08-20T06:31:52;101525.72;;;17.96;82.69
73981;BME280;62348;51.412;5.436;2022-08-20T06:34:17;101524.03;;;18.00;82.68
73981;BME280;62348;51.412;5.436;2022-08-20T06:36:44;101530.13;;;17.97;82.53
73981;BME280;62348;51.412;5.436;2022-08-20T06:39:13;101529.81;;;17.99;82.83
73981;BME280;62348;51.412;5.436;2022-08-20T06:41:38;101530.13;;;17.97;82.38
73981;BME280;62348;51.412;5.436;2022-08-20T06:44:05;101532.84;;;17.97;82.70
73981;BME280;62348;51.412;5.436;2022-08-20T06:46:34;101532.91;;;17.92;82.75
73981;BME280;62348;51.412;5.436;2022-08-20T06:49:00;101531.50;;;17.94;82.23
73981;BME280;62348;51.412;5.436;2022-08-20T06:51:28;101529.88;;;17.93;82.92
73981;BME280;62348;51.412;5.436;2022-08-20T06:53:54;101529.38;;;17.91;82.99
73981;BME280;62348;51.412;5.436;2022-08-20T06:56:19;101526.34;;;17.93;83.03
73981;BME280;62348;51.412;5.436;2022-08-20T06:58:44;101531.59;;;17.89;82.62
73981;BME280;62348;51.412;5.436;2022-08-20T07:01:10;101528.84;;;17.89;82.85
73981;BME280;62348;51.412;5.436;2022-08-20T07:03:37;101532.63;;;17.93;82.78
73981;BME280;62348;51.412;5.436;2022-08-20T07:06:04;101535.59;;;17.97;82.81
73981;BME280;62348;51.412;5.436;2022-08-20T07:08:29;101532.34;;;17.95;82.56
73981;BME280;62348;51.412;5.436;2022-08-20T07:10:55;101539.13;;;17.98;82.83
73981;BME280;62348;51.412;5.436;2022-08-20T07:13:20;101534.47;;;17.98;82.87
73981;BME280;62348;51.412;5.436;2022-08-20T07:15:46;101547.78;;;18.05;82.93
73981;BME280;62348;51.412;5.436;2022-08-20T07:18:12;101548.03;;;18.08;82.84
73981;BME280;62348;51.412;5.436;2022-08-20T07:20:38;101549.13;;;18.07;82.39
73981;BME280;62348;51.412;5.436;2022-08-20T07:23:05;101555.09;;;18.09;82.35
73981;BME280;62348;51.412;5.436;2022-08-20T07:25:32;101549.13;;;18.07;82.35
73981;BME280;62348;51.412;5.436;2022-08-20T07:28:11;101554.53;;;18.12;82.22
73981;BME280;62348;51.412;5.436;2022-08-20T07:30:38;101552.09;;;18.11;81.88
73981;BME280;62348;51.412;5.436;2022-08-20T07:33:22;101558.44;;;18.06;81.97
73981;BME280;62348;51.412;5.436;2022-08-20T07:35:47;101557.84;;;18.09;82.04
73981;BME280;62348;51.412;5.436;2022-08-20T07:38:18;101561.63;;;18.13;82.00
73981;BME280;62348;51.412;5.436;2022-08-20T07:40:52;101559.19;;;18.12;82.02
73981;BME280;62348;51.412;5.436;2022-08-20T07:43:18;101568.66;;;18.20;82.26
73981;BME280;62348;51.412;5.436;2022-08-20T07:45:45;101569.47;;;18.20;82.16
73981;BME280;62348;51.412;5.436;2022-08-20T07:48:12;101574.94;;;18.20;81.99
73981;BME280;62348;51.412;5.436;2022-08-20T07:50:38;101573.53;;;18.23;82.17
73981;BME280;62348;51.412;5.436;2022-08-20T07:53:04;101579.75;;;18.28;82.10
73981;BME280;62348;51.412;5.436;2022-08-20T07:55:30;101584.41;;;18.28;82.03
73981;BME280;62348;51.412;5.436;2022-08-20T07:57:57;101587.38;;;18.31;81.86
73981;BME280;62348;51.412;5.436;2022-08-20T08:00:24;101585.47;;;18.32;82.04
73981;BME280;62348;51.412;5.436;2022-08-20T08:02:51;101592.88;;;18.31;82.03
73981;BME280;62348;51.412;5.436;2022-08-20T08:05:17;101599.16;;;18.32;82.07
73981;BME280;62348;51.412;5.436;2022-08-20T08:07:43;101595.81;;;18.35;81.69
73981;BME280;62348;51.412;5.436;2022-08-20T08:10:11;101601.31;;;18.35;81.78
73981;BME280;62348;51.412;5.436;2022-08-20T08:12:44;101601.00;;;18.37;81.63
73981;BME280;62348;51.412;5.436;2022-08-20T08:15:14;101594.47;;;18.32;81.59
73981;BME280;62348;51.412;5.436;2022-08-20T08:17:42;101600.78;;;18.33;82.14
73981;BME280;62348;51.412;5.436;2022-08-20T08:20:09;101597.91;;;18.43;81.71
73981;BME280;62348;51.412;5.436;2022-08-20T08:22:36;101597.31;;;18.46;81.33
73981;BME280;62348;51.412;5.436;2022-08-20T08:25:04;101601.59;;;18.52;81.61
73981;BME280;62348;51.412;5.436;2022-08-20T08:27:30;101603.00;;;18.50;81.09
73981;BME280;62348;51.412;5.436;2022-08-20T08:29:59;101597.75;;;18.53;81.15
73981;BME280;62348;51.412;5.436;2022-08-20T08:32:26;101603.44;;;18.57;81.00
73981;BME280;62348;51.412;5.436;2022-08-20T08:34:51;101606.41;;;18.61;81.32
73981;BME280;62348;51.412;5.436;2022-08-20T08:37:16;101606.72;;;18.59;81.25
73981;BME280;62348;51.412;5.436;2022-08-20T08:39:42;101605.53;;;18.65;80.96
73981;BME280;62348;51.412;5.436;2022-08-20T08:42:34;101612.84;;;18.70;80.92
73981;BME280;62348;51.412;5.436;2022-08-20T08:45:05;101615.28;;;18.71;80.61
73981;BME280;62348;51.412;5.436;2022-08-20T08:47:34;101617.81;;;18.68;80.09
73981;BME280;62348;51.412;5.436;2022-08-20T08:50:02;101616.59;;;18.74;80.26
73981;BME280;62348;51.412;5.436;2022-08-20T08:52:32;101615.50;;;18.75;79.66
73981;BME280;62348;51.412;5.436;2022-08-20T08:55:02;101621.38;;;18.87;80.02
73981;BME280;62348;51.412;5.436;2022-08-20T08:57:30;101618.88;;;19.24;79.06
73981;BME280;62348;51.412;5.436;2022-08-20T09:00:06;101630.19;;;19.50;77.34
73981;BME280;62348;51.412;5.436;2022-08-20T09:02:34;101629.97;;;19.79;78.30
73981;BME280;62348;51.412;5.436;2022-08-20T09:05:11;101619.69;;;19.99;77.13
73981;BME280;62348;51.412;5.436;2022-08-20T09:07:37;101615.69;;;20.33;76.58
73981;BME280;62348;51.412;5.436;2022-08-20T09:10:04;101624.28;;;20.54;74.03
73981;BME280;62348;51.412;5.436;2022-08-20T09:12:30;101619.41;;;20.64;72.49
73981;BME280;62348;51.412;5.436;2022-08-20T09:14:57;101622.28;;;20.82;71.17
73981;BME280;62348;51.412;5.436;2022-08-20T09:17:23;101625.66;;;21.01;71.78
73981;BME280;62348;51.412;5.436;2022-08-20T09:19:48;101620.78;;;21.21;70.87
73981;BME280;62348;51.412;5.436;2022-08-20T09:22:19;101611.78;;;21.29;69.12
73981;BME280;62348;51.412;5.436;2022-08-20T09:24:45;101618.31;;;21.42;67.63
73981;BME280;62348;51.412;5.436;2022-08-20T09:27:11;101603.06;;;21.36;68.12
73981;BME280;62348;51.412;5.436;2022-08-20T09:29:37;101613.66;;;21.20;66.40
73981;BME280;62348;51.412;5.436;2022-08-20T09:34:29;101615.13;;;21.26;68.18
73981;BME280;62348;51.412;5.436;2022-08-20T09:36:55;101612.25;;;21.31;67.21
73981;BME280;62348;51.412;5.436;2022-08-20T09:39:20;101603.06;;;21.36;67.29
73981;BME280;62348;51.412;5.436;2022-08-20T09:41:45;101600.94;;;21.55;65.88
73981;BME280;62348;51.412;5.436;2022-08-20T09:44:11;101609.75;;;21.75;65.47
73981;BME280;62348;51.412;5.436;2022-08-20T09:46:36;101605.25;;;21.88;64.66
73981;BME280;62348;51.412;5.436;2022-08-20T09:49:01;101608.84;;;21.97;62.46
73981;BME280;62348;51.412;5.436;2022-08-20T09:51:27;101608.00;;;21.88;60.61
73981;BME280;62348;51.412;5.436;2022-08-20T09:53:53;101604.31;;;22.01;61.51
73981;BME280;62348;51.412;5.436;2022-08-20T09:56:18;101599.97;;;22.17;61.91
73981;BME280;62348;51.412;5.436;2022-08-20T09:58:49;101605.22;;;22.28;61.79
73981;BME280;62348;51.412;5.436;2022-08-20T10:01:18;101601.19;;;22.42;61.31
73981;BME280;62348;51.412;5.436;2022-08-20T10:03:45;101608.94;;;22.49;61.28
73981;BME280;62348;51.412;5.436;2022-08-20T10:06:15;101608.31;;;22.61;57.41
73981;BME280;62348;51.412;5.436;2022-08-20T10:08:42;101606.03;;;22.28;56.97
73981;BME280;62348;51.412;5.436;2022-08-20T10:11:09;101604.16;;;22.06;56.45
73981;BME280;62348;51.412;5.436;2022-08-20T10:13:34;101605.00;;;22.24;56.73
73981;BME280;62348;51.412;5.436;2022-08-20T10:15:59;101604.56;;;22.31;56.73
73981;BME280;62348;51.412;5.436;2022-08-20T10:18:25;101600.19;;;22.47;55.83
73981;BME280;62348;51.412;5.436;2022-08-20T10:20:50;101594.88;;;22.59;56.97
73981;BME280;62348;51.412;5.436;2022-08-20T10:23:16;101602.47;;;22.71;55.87
73981;BME280;62348;51.412;5.436;2022-08-20T10:25:41;101605.25;;;22.71;56.67
73981;BME280;62348;51.412;5.436;2022-08-20T10:28:07;101606.03;;;22.80;54.08
73981;BME280;62348;51.412;5.436;2022-08-20T10:30:33;101604.09;;;22.81;54.53
73981;BME280;62348;51.412;5.436;2022-08-20T10:32:59;101605.38;;;22.92;54.52
73981;BME280;62348;51.412;5.436;2022-08-20T10:35:24;101605.06;;;22.68;55.12
73981;BME280;62348;51.412;5.436;2022-08-20T10:37:49;101610.75;;;22.45;51.71
73981;BME280;62348;51.412;5.436;2022-08-20T10:40:15;101617.22;;;22.32;52.46
73981;BME280;62348;51.412;5.436;2022-08-20T10:42:42;101611.72;;;22.49;53.15
73981;BME280;62348;51.412;5.436;2022-08-20T10:45:12;101611.06;;;22.61;52.36
73981;BME280;62348;51.412;5.436;2022-08-20T10:47:38;101619.50;;;22.56;50.52
73981;BME280;62348;51.412;5.436;2022-08-20T10:50:06;101615.44;;;22.62;51.65
73981;BME280;62348;51.412;5.436;2022-08-20T10:52:32;101611.72;;;22.75;51.65
73981;BME280;62348;51.412;5.436;2022-08-20T10:54:58;101610.41;;;22.90;53.78
73981;BME280;62348;51.412;5.436;2022-08-20T10:57:26;101612.50;;;22.93;51.63
73981;BME280;62348;51.412;5.436;2022-08-20T10:59:55;101614.13;;;22.86;51.37
73981;BME280;62348;51.412;5.436;2022-08-20T11:02:21;101609.13;;;22.70;52.01
73981;BME280;62348;51.412;5.436;2022-08-20T11:04:47;101617.56;;;22.74;51.19
73981;BME280;62348;51.412;5.436;2022-08-20T11:07:19;101611.53;;;22.89;51.51
73981;BME280;62348;51.412;5.436;2022-08-20T11:09:47;101614.13;;;22.94;51.19
73981;BME280;62348;51.412;5.436;2022-08-20T11:12:14;101606.50;;;23.00;51.20
73981;BME280;62348;51.412;5.436;2022-08-20T11:14:39;101600.66;;;23.02;50.29
73981;BME280;62348;51.412;5.436;2022-08-20T11:17:06;101599.38;;;23.08;49.09
73981;BME280;62348;51.412;5.436;2022-08-20T11:19:32;101602.28;;;23.03;49.47
73981;BME280;62348;51.412;5.436;2022-08-20T11:21:58;101598.06;;;22.88;48.98
73981;BME280;62348;51.412;5.436;2022-08-20T11:24:23;101606.69;;;22.86;50.88
73981;BME280;62348;51.412;5.436;2022-08-20T11:26:49;101609.75;;;22.76;50.61
73981;BME280;62348;51.412;5.436;2022-08-20T11:29:17;101605.22;;;22.63;50.83
73981;BME280;62348;51.412;5.436;2022-08-20T11:31:43;101610.25;;;22.52;51.32
73981;BME280;62348;51.412;5.436;2022-08-20T11:34:08;101613.00;;;22.43;52.22
73981;BME280;62348;51.412;5.436;2022-08-20T11:36:34;101619.16;;;22.31;53.72
73981;BME280;62348;51.412;5.436;2022-08-20T11:38:59;101613.59;;;22.22;53.53
73981;BME280;62348;51.412;5.436;2022-08-20T11:41:25;101610.81;;;22.14;54.14
73981;BME280;62348;51.412;5.436;2022-08-20T11:43:50;101611.66;;;22.14;54.64
73981;BME280;62348;51.412;5.436;2022-08-20T11:46:15;101623.00;;;22.21;53.86
73981;BME280;62348;51.412;5.436;2022-08-20T11:48:41;101611.69;;;22.32;54.69
73981;BME280;62348;51.412;5.436;2022-08-20T11:51:06;101615.09;;;22.37;51.85
73981;BME280;62348;51.412;5.436;2022-08-20T11:53:32;101609.94;;;22.45;51.88
73981;BME280;62348;51.412;5.436;2022-08-20T11:55:58;101614.66;;;22.61;50.41
73981;BME280;62348;51.412;5.436;2022-08-20T11:58:23;101615.44;;;22.62;50.75
73981;BME280;62348;51.412;5.436;2022-08-20T12:00:49;101615.75;;;22.78;49.93
73981;BME280;62348;51.412;5.436;2022-08-20T12:03:14;101610.09;;;22.83;50.54
73981;BME280;62348;51.412;5.436;2022-08-20T12:05:42;101598.22;;;22.91;48.06
73981;BME280;62348;51.412;5.436;2022-08-20T12:08:08;101597.63;;;23.03;50.25
73981;BME280;62348;51.412;5.436;2022-08-20T12:10:34;101596.94;;;23.06;49.47
73981;BME280;62348;51.412;5.436;2022-08-20T12:13:00;101598.91;;;23.06;48.94
73981;BME280;62348;51.412;5.436;2022-08-20T12:15:26;101599.38;;;23.16;50.54
73981;BME280;62348;51.412;5.436;2022-08-20T12:17:52;101600.50;;;23.24;50.10
73981;BME280;62348;51.412;5.436;2022-08-20T12:20:18;101604.84;;;23.25;48.18
73981;BME280;62348;51.412;5.436;2022-08-20T12:22:43;101612.00;;;23.17;47.68
73981;BME280;62348;51.412;5.436;2022-08-20T12:25:09;101604.25;;;23.11;49.62
73981;BME280;62348;51.412;5.436;2022-08-20T12:27:35;101593.84;;;23.16;48.80
73981;BME280;62348;51.412;5.436;2022-08-20T12:30:06;101591.84;;;23.26;48.88
73981;BME280;62348;51.412;5.436;2022-08-20T12:32:33;101596.56;;;23.34;48.64
73981;BME280;62348;51.412;5.436;2022-08-20T12:34:58;101595.22;;;23.40;47.93
73981;BME280;62348;51.412;5.436;2022-08-20T12:37:27;101600.59;;;23.45;47.74
73981;BME280;62348;51.412;5.436;2022-08-20T12:39:54;101605.56;;;23.52;46.80
73981;BME280;62348;51.412;5.436;2022-08-20T12:42:21;101597.66;;;23.42;47.41
73981;BME280;62348;51.412;5.436;2022-08-20T12:44:46;101599.00;;;23.27;48.68
73981;BME280;62348;51.412;5.436;2022-08-20T12:47:27;101598.53;;;23.16;50.14
73981;BME280;62348;51.412;5.436;2022-08-20T12:49:59;101609.75;;;23.02;50.35
73981;BME280;62348;51.412;5.436;2022-08-20T12:52:26;101600.66;;;22.93;49.04
73981;BME280;62348;51.412;5.436;2022-08-20T12:54:52;101602.63;;;22.92;47.93
73981;BME280;62348;51.412;5.436;2022-08-20T12:57:27;101602.31;;;22.85;49.80
73981;BME280;62348;51.412;5.436;2022-08-20T13:00:00;101598.75;;;22.76;48.24
73981;BME280;62348;51.412;5.436;2022-08-20T13:02:26;101593.06;;;22.90;48.76
73981;BME280;62348;51.412;5.436;2022-08-20T13:04:52;101599.19;;;22.95;48.92